createdAt,value
2019-02-09T00:00:33.946Z,4.67
2019-02-09T00:03:02.588Z,4.27
2019-02-09T00:05:31.239Z,5.43
2019-02-09T00:07:59.898Z,5.23
2019-02-09T00:10:28.546Z,4.07
2019-02-09T00:12:57.180Z,4.57
2019-02-09T00:15:25.825Z,4.80
2019-02-09T00:17:54.533Z,4.13
2019-02-09T00:20:23.244Z,3.57
2019-02-09T00:22:52.002Z,4.73
2019-02-09T00:25:22.422Z,4.37
2019-02-09T00:27:51.031Z,5.90
2019-02-09T00:30:21.226Z,7.07
2019-02-09T00:32:49.920Z,4.10
2019-02-09T00:35:19.867Z,7.67
2019-02-09T00:37:48.573Z,3.60
2019-02-09T00:40:24.789Z,5.07
2019-02-09T00:42:53.498Z,2.87
2019-02-09T00:45:24.411Z,5.07
2019-02-09T00:47:53.122Z,5.37
2019-02-09T00:50:23.224Z,2.97
2019-02-09T00:52:53.462Z,5.67
2019-02-09T00:55:26.377Z,3.20
2019-02-09T00:57:56.311Z,5.07
2019-02-09T01:00:32.104Z,4.60
2019-02-09T01:03:01.212Z,7.33
2019-02-09T01:05:35.318Z,5.53
2019-02-09T01:08:04.539Z,6.53
2019-02-09T01:10:33.319Z,4.27
2019-02-09T01:13:01.968Z,5.00
2019-02-09T01:15:30.574Z,4.40
2019-02-09T01:17:59.278Z,3.80
2019-02-09T01:20:29.458Z,7.23
2019-02-09T01:22:59.380Z,4.13
2019-02-09T01:25:27.987Z,4.67
2019-02-09T01:27:56.694Z,5.70
2019-02-09T01:30:29.146Z,5.10
2019-02-09T01:32:57.860Z,7.00
2019-02-09T01:35:27.042Z,4.80
2019-02-09T01:37:55.755Z,8.57
2019-02-09T01:40:26.227Z,5.23
2019-02-09T01:42:55.237Z,5.00
2019-02-09T01:45:29.324Z,5.57
2019-02-09T01:47:58.072Z,6.23
2019-02-09T01:50:28.447Z,4.70
2019-02-09T01:52:57.155Z,6.30
2019-02-09T01:55:26.734Z,5.27
2019-02-09T01:57:55.353Z,4.47
2019-02-09T02:00:26.010Z,8.00
2019-02-09T02:02:55.119Z,5.80
2019-02-09T02:05:25.098Z,7.67
2019-02-09T02:07:53.904Z,5.87
2019-02-09T02:10:28.123Z,5.57
2019-02-09T02:12:56.926Z,5.00
2019-02-09T02:15:26.214Z,5.07
2019-02-09T02:17:54.871Z,5.40
2019-02-09T02:20:26.035Z,7.40
2019-02-09T02:22:54.823Z,5.93
2019-02-09T02:25:23.751Z,6.27
2019-02-09T02:27:52.380Z,7.63
2019-02-09T02:30:23.457Z,5.40
2019-02-09T02:32:52.351Z,5.37
2019-02-09T02:35:20.984Z,5.60
2019-02-09T02:37:53.958Z,7.77
2019-02-09T02:40:23.755Z,5.60
2019-02-09T02:42:52.449Z,6.13
2019-02-09T02:45:24.922Z,8.23
2019-02-09T02:47:53.805Z,6.57
2019-02-09T02:50:23.411Z,5.40
2019-02-09T02:52:52.305Z,8.87
2019-02-09T02:55:28.751Z,4.67
2019-02-09T02:57:57.360Z,5.53
2019-02-09T03:00:33.728Z,4.93
2019-02-09T03:03:03.219Z,6.20
2019-02-09T03:05:31.925Z,6.00
2019-02-09T03:08:00.616Z,7.07
2019-02-09T03:10:29.255Z,8.17
2019-02-09T03:12:57.932Z,7.73
2019-02-09T03:15:34.114Z,6.93
2019-02-09T03:18:02.798Z,8.00
2019-02-09T03:20:31.444Z,7.87
2019-02-09T03:23:00.133Z,7.23
2019-02-09T03:25:35.937Z,8.80
2019-02-09T03:28:04.816Z,4.73
2019-02-09T03:30:46.523Z,8.67
2019-02-09T03:33:03.737Z,5.73
2019-02-09T03:35:32.315Z,9.67
2019-02-09T03:38:01.783Z,6.37
2019-02-09T03:40:30.494Z,6.33
2019-02-09T03:42:59.040Z,5.40
2019-02-09T03:45:32.189Z,6.20
2019-02-09T03:48:01.131Z,6.23
2019-02-09T03:50:31.770Z,5.63
2019-02-09T03:53:01.356Z,6.23
2019-02-09T03:55:30.001Z,5.00
2019-02-09T03:57:58.684Z,7.87
2019-02-09T04:00:29.196Z,4.47
2019-02-09T04:02:57.970Z,5.80
2019-02-09T04:05:26.987Z,5.40
2019-02-09T04:07:57.004Z,6.57
2019-02-09T04:10:27.650Z,4.57
2019-02-09T04:12:56.385Z,5.83
2019-02-09T04:15:28.675Z,9.23
2019-02-09T04:17:57.442Z,5.37
2019-02-09T04:20:26.858Z,8.13
2019-02-09T04:22:55.676Z,5.57
2019-02-09T04:25:24.571Z,8.33
2019-02-09T04:27:53.378Z,5.40
2019-02-09T04:30:23.972Z,7.40
2019-02-09T04:32:52.685Z,8.37
2019-02-09T04:35:21.565Z,8.17
2019-02-09T04:37:50.276Z,7.17
2019-02-09T04:40:23.757Z,9.03
2019-02-09T04:42:52.398Z,6.27
2019-02-09T04:45:21.304Z,6.63
2019-02-09T04:47:50.049Z,8.60
2019-02-09T04:50:19.055Z,10.03
2019-02-09T04:52:47.885Z,5.77
2019-02-09T04:55:21.027Z,8.33
2019-02-09T04:57:49.742Z,9.50
2019-02-09T05:00:23.021Z,7.10
2019-02-09T05:02:51.869Z,6.53
2019-02-09T05:05:20.556Z,6.13
2019-02-09T05:07:49.373Z,5.47
2019-02-09T05:10:22.822Z,6.50
2019-02-09T05:12:51.532Z,5.37
2019-02-09T05:15:21.231Z,4.63
2019-02-09T05:17:50.049Z,6.97
2019-02-09T05:20:20.909Z,4.63
2019-02-09T05:22:50.036Z,7.03
2019-02-09T05:25:18.937Z,5.27
2019-02-09T05:27:47.765Z,6.60
2019-02-09T05:30:21.275Z,5.80
2019-02-09T05:32:49.855Z,5.73
2019-02-09T05:35:18.550Z,4.53
2019-02-09T05:37:47.234Z,4.50
2019-02-09T05:40:24.324Z,6.37
2019-02-09T05:42:53.150Z,6.93
2019-02-09T05:45:23.770Z,6.93
2019-02-09T05:47:52.679Z,4.70
2019-02-09T05:50:21.518Z,4.40
2019-02-09T05:52:50.229Z,3.63
2019-02-09T05:55:19.373Z,6.37
2019-02-09T05:57:48.186Z,3.37
2019-02-09T06:00:39.434Z,4.27
2019-02-09T06:03:07.978Z,3.73
2019-02-09T06:05:36.557Z,3.93
2019-02-09T06:08:05.359Z,2.67
2019-02-09T06:10:34.116Z,6.77
2019-02-09T06:13:02.794Z,4.13
2019-02-09T06:15:31.440Z,6.07
2019-02-09T06:17:59.983Z,3.57
2019-02-09T06:20:30.506Z,6.10
2019-02-09T06:22:59.404Z,2.77
2019-02-09T06:25:28.622Z,4.50
2019-02-09T06:27:57.213Z,6.00
2019-02-09T06:30:33.133Z,4.67
2019-02-09T06:33:01.691Z,6.57
2019-02-09T06:35:30.491Z,5.63
2019-02-09T06:38:00.120Z,5.43
2019-02-09T06:40:28.660Z,5.47
2019-02-09T06:42:57.200Z,3.07
2019-02-09T06:45:28.833Z,5.97
2019-02-09T06:48:18.274Z,4.97
2019-02-09T06:50:46.921Z,3.90
2019-02-09T06:53:15.474Z,4.67
2019-02-09T06:55:44.126Z,5.57
2019-02-09T06:58:14.203Z,5.13
2019-02-09T07:00:42.848Z,6.23
2019-02-09T07:03:11.466Z,5.27
2019-02-09T07:05:40.106Z,5.87
2019-02-09T07:08:08.722Z,7.43
2019-02-09T07:10:37.290Z,7.07
2019-02-09T07:13:05.977Z,8.30
2019-02-09T07:15:38.127Z,8.87
2019-02-09T07:18:07.326Z,7.20
2019-02-09T07:20:36.234Z,6.70
2019-02-09T07:23:06.234Z,7.23
2019-02-09T07:25:34.955Z,5.47
2019-02-09T07:28:03.767Z,5.07
2019-02-09T07:30:36.138Z,7.80
2019-02-09T07:33:06.815Z,9.27
2019-02-09T07:35:35.539Z,10.10
2019-02-09T07:38:04.418Z,8.53
2019-02-09T07:40:32.988Z,9.47
2019-02-09T07:43:01.599Z,7.70
2019-02-09T07:45:32.691Z,8.57
2019-02-09T07:48:01.322Z,6.43
2019-02-09T07:50:29.979Z,5.93
2019-02-09T07:52:58.666Z,6.97
2019-02-09T07:55:27.386Z,7.53
2019-02-09T07:57:55.934Z,6.60
2019-02-09T08:00:27.010Z,10.43
2019-02-09T08:02:55.701Z,6.97
2019-02-09T08:05:25.539Z,10.20
2019-02-09T08:07:54.217Z,7.33
2019-02-09T08:10:25.402Z,8.23
2019-02-09T08:12:54.477Z,5.30
2019-02-09T08:15:25.634Z,11.80
2019-02-09T08:17:54.289Z,7.20
2019-02-09T08:20:27.775Z,7.07
2019-02-09T08:22:57.882Z,9.00
2019-02-09T08:25:28.673Z,6.60
2019-02-09T08:27:57.481Z,6.60
2019-02-09T08:30:28.938Z,4.77
2019-02-09T08:32:57.681Z,8.47
2019-02-09T08:35:26.382Z,10.27
2019-02-09T08:37:55.121Z,9.57
2019-02-09T08:40:23.743Z,10.10
2019-02-09T08:42:52.463Z,6.63
2019-02-09T08:45:22.335Z,6.10
2019-02-09T08:47:50.993Z,6.40
2019-02-09T08:50:22.446Z,9.80
2019-02-09T08:52:51.102Z,5.53
2019-02-09T08:55:19.795Z,7.87
2019-02-09T08:57:49.391Z,4.33
2019-02-09T09:00:23.735Z,9.33
2019-02-09T09:02:52.376Z,5.67
2019-02-09T09:05:20.989Z,5.37
2019-02-09T09:07:49.702Z,10.67
2019-02-09T09:10:20.886Z,8.03
2019-02-09T09:12:49.520Z,6.03
2019-02-09T09:15:21.206Z,10.00
2019-02-09T09:17:49.778Z,9.47
2019-02-09T09:20:24.080Z,5.87
2019-02-09T09:22:52.722Z,10.03
2019-02-09T09:25:21.406Z,5.50
2019-02-09T09:27:49.988Z,7.10
2019-02-09T09:30:26.585Z,8.50
2019-02-09T09:32:55.294Z,18.50
2019-02-09T09:35:24.068Z,8.60
2019-02-09T09:37:52.987Z,4.93
2019-02-09T09:40:26.914Z,8.20
2019-02-09T09:42:55.580Z,10.87
2019-02-09T09:45:29.234Z,7.40
2019-02-09T09:47:57.908Z,11.20
2019-02-09T09:50:27.886Z,15.77
2019-02-09T09:52:56.569Z,10.80
2019-02-09T09:55:25.410Z,9.07
2019-02-09T09:57:54.099Z,6.17
2019-02-09T10:00:25.275Z,8.93
2019-02-09T10:02:53.874Z,10.03
2019-02-09T10:05:22.685Z,10.37
2019-02-09T10:07:51.367Z,9.70
2019-02-09T10:10:20.978Z,6.13
2019-02-09T10:12:49.665Z,9.43
2019-02-09T10:15:28.773Z,9.57
2019-02-09T10:17:57.462Z,9.47
2019-02-09T10:20:27.482Z,6.63
2019-02-09T10:22:56.198Z,10.20
2019-02-09T10:25:24.776Z,7.53
2019-02-09T10:27:55.457Z,10.93
2019-02-09T10:30:28.934Z,6.97
2019-02-09T10:32:57.545Z,9.10
2019-02-09T10:35:26.354Z,10.67
2019-02-09T10:37:54.974Z,8.73
2019-02-09T10:40:28.527Z,8.67
2019-02-09T10:42:57.712Z,5.67
2019-02-09T10:45:28.318Z,8.87
2019-02-09T10:47:57.097Z,8.23
2019-02-09T10:50:28.484Z,5.83
2019-02-09T10:52:57.025Z,4.57
2019-02-09T10:55:25.742Z,8.07
2019-02-09T10:57:54.425Z,7.63
2019-02-09T11:00:43.878Z,5.97
2019-02-09T11:03:12.502Z,8.17
2019-02-09T11:05:41.076Z,9.33
2019-02-09T11:08:09.762Z,7.63
2019-02-09T11:10:38.585Z,5.73
2019-02-09T11:13:07.374Z,10.90
2019-02-09T11:15:36.094Z,9.87
2019-02-09T11:18:05.883Z,7.50
2019-02-09T11:20:34.531Z,10.27
2019-02-09T11:23:03.141Z,10.13
2019-02-09T11:25:31.777Z,10.93
2019-02-09T11:28:00.386Z,9.43
2019-02-09T11:30:29.594Z,9.50
2019-02-09T11:33:01.967Z,11.60
2019-02-09T11:35:28.533Z,8.97
2019-02-09T11:37:57.077Z,8.47
2019-02-09T11:40:30.316Z,8.90
2019-02-09T11:43:00.113Z,8.80
2019-02-09T11:45:36.089Z,9.93
2019-02-09T11:48:05.771Z,10.07
2019-02-09T11:50:34.481Z,9.00
2019-02-09T11:53:03.168Z,11.33
2019-02-09T11:55:31.754Z,14.03
2019-02-09T11:58:00.379Z,13.23
2019-02-09T12:00:32.380Z,13.63
2019-02-09T12:03:04.019Z,8.20
2019-02-09T12:05:31.183Z,6.53
2019-02-09T12:08:02.951Z,3.87
2019-02-09T12:10:31.742Z,11.10
2019-02-09T12:13:00.390Z,7.30
2019-02-09T12:15:31.183Z,8.83
2019-02-09T12:17:59.832Z,5.63
2019-02-09T12:20:28.519Z,4.77
2019-02-09T12:22:57.161Z,4.13
2019-02-09T12:25:31.110Z,5.60
2019-02-09T12:27:59.934Z,6.57
2019-02-09T12:30:34.599Z,7.83
2019-02-09T12:33:04.069Z,4.13
2019-02-09T12:35:32.689Z,4.17
2019-02-09T12:38:01.247Z,5.20
2019-02-09T12:40:32.114Z,5.53
2019-02-09T12:43:01.041Z,4.03
2019-02-09T12:45:39.995Z,6.57
2019-02-09T12:48:09.811Z,5.30
2019-02-09T12:50:38.901Z,4.00
2019-02-09T12:53:07.622Z,10.47
2019-02-09T12:55:36.238Z,6.00
2019-02-09T12:58:05.559Z,5.87
2019-02-09T13:00:35.849Z,3.83
2019-02-09T13:03:19.568Z,7.00
2019-02-09T13:05:48.114Z,6.37
2019-02-09T13:08:16.826Z,3.23
2019-02-09T13:10:45.443Z,5.83
2019-02-09T13:13:14.086Z,6.50
2019-02-09T13:15:42.702Z,6.13
2019-02-09T13:18:11.363Z,4.57
2019-02-09T13:20:39.886Z,4.87
2019-02-09T13:23:09.398Z,4.77
2019-02-09T13:25:38.017Z,5.10
2019-02-09T13:28:06.817Z,3.30
2019-02-09T13:30:42.701Z,4.73
2019-02-09T13:33:12.338Z,5.10
2019-02-09T13:35:41.130Z,4.20
2019-02-09T13:38:09.827Z,7.20
2019-02-09T13:40:38.430Z,4.27
2019-02-09T13:43:07.179Z,3.80
2019-02-09T13:45:41.050Z,7.17
2019-02-09T13:48:09.833Z,5.03
2019-02-09T13:50:38.757Z,7.50
2019-02-09T13:53:08.067Z,6.80
2019-02-09T13:55:36.772Z,8.53
2019-02-09T13:58:05.602Z,6.73
2019-02-09T14:00:34.493Z,5.23
2019-02-09T14:03:04.482Z,8.67
2019-02-09T14:05:33.113Z,7.80
2019-02-09T14:08:01.594Z,10.13
2019-02-09T14:10:30.174Z,13.10
2019-02-09T14:12:58.951Z,6.80
2019-02-09T14:15:32.437Z,9.63
2019-02-09T14:18:04.397Z,7.60
2019-02-09T14:20:33.262Z,4.73
2019-02-09T14:23:01.881Z,8.73
2019-02-09T14:25:30.453Z,7.17
2019-02-09T14:28:00.621Z,10.63
2019-02-09T14:30:31.791Z,9.57
2019-02-09T14:33:01.003Z,9.40
2019-02-09T14:35:30.058Z,9.70
2019-02-09T14:37:58.763Z,8.63
2019-02-09T14:40:32.498Z,6.00
2019-02-09T14:43:01.586Z,11.33
2019-02-09T14:45:35.682Z,11.23
2019-02-09T14:48:04.503Z,8.30
2019-02-09T14:50:33.154Z,6.70
2019-02-09T14:53:01.842Z,7.47
2019-02-09T14:55:32.356Z,6.13
2019-02-09T14:58:01.269Z,9.07
2019-02-09T15:00:35.690Z,4.63
2019-02-09T15:03:05.474Z,11.90
2019-02-09T15:05:34.192Z,9.10
2019-02-09T15:08:02.886Z,10.00
2019-02-09T15:10:31.534Z,8.77
2019-02-09T15:13:00.150Z,5.80
2019-02-09T15:15:31.441Z,6.87
2019-02-09T15:18:00.122Z,14.73
2019-02-09T15:20:34.414Z,9.80
2019-02-09T15:23:03.099Z,9.53
2019-02-09T15:25:31.677Z,9.00
2019-02-09T15:28:00.239Z,11.33
2019-02-09T15:30:30.355Z,8.77
2019-02-09T15:32:59.066Z,8.07
2019-02-09T15:35:27.647Z,8.67
2019-02-09T15:37:56.194Z,12.60
2019-02-09T15:40:24.829Z,7.13
2019-02-09T15:42:53.377Z,10.47
2019-02-09T15:45:25.901Z,8.27
2019-02-09T15:47:58.307Z,12.43
2019-02-09T15:50:27.100Z,11.40
2019-02-09T15:52:55.709Z,7.47
2019-02-09T15:55:25.642Z,12.07
2019-02-09T15:57:54.252Z,11.17
2019-02-09T16:00:29.914Z,11.50
2019-02-09T16:02:59.718Z,10.93
2019-02-09T16:05:28.561Z,8.23
2019-02-09T16:07:57.219Z,9.57
2019-02-09T16:10:25.902Z,5.53
2019-02-09T16:12:54.556Z,7.50
2019-02-09T16:15:30.606Z,7.97
2019-02-09T16:17:59.321Z,9.53
2019-02-09T16:20:32.359Z,10.23
2019-02-09T16:23:00.888Z,9.10
2019-02-09T16:25:29.502Z,8.30
2019-02-09T16:27:58.138Z,11.00
2019-02-09T16:30:30.566Z,8.87
2019-02-09T16:32:59.124Z,10.70
2019-02-09T16:35:33.591Z,12.90
2019-02-09T16:38:02.294Z,13.20
2019-02-09T16:40:34.536Z,8.77
2019-02-09T16:43:03.101Z,9.80
2019-02-09T16:45:33.512Z,9.47
2019-02-09T16:48:02.076Z,7.30
2019-02-09T16:50:30.618Z,9.83
2019-02-09T16:52:59.368Z,8.17
2019-02-09T16:55:27.946Z,6.13
2019-02-09T16:57:56.582Z,7.57
2019-02-09T17:00:28.197Z,5.20
2019-02-09T17:02:57.121Z,8.70
2019-02-09T17:05:26.001Z,5.87
2019-02-09T17:07:54.713Z,10.10
2019-02-09T17:10:23.409Z,10.27
2019-02-09T17:12:52.309Z,9.03
2019-02-09T17:15:25.008Z,7.40
2019-02-09T17:17:53.805Z,10.23
2019-02-09T17:20:22.485Z,6.93
2019-02-09T17:22:51.855Z,5.50
2019-02-09T17:25:22.321Z,9.33
2019-02-09T17:27:51.071Z,8.67
2019-02-09T17:30:27.690Z,8.23
2019-02-09T17:32:56.410Z,7.20
2019-02-09T17:35:25.018Z,10.87
2019-02-09T17:37:53.853Z,6.37
2019-02-09T17:40:25.213Z,10.53
2019-02-09T17:42:53.833Z,10.00
2019-02-09T17:45:31.277Z,9.83
2019-02-09T17:47:59.989Z,10.80
2019-02-09T17:50:28.731Z,11.73
2019-02-09T17:52:57.302Z,10.87
2019-02-09T17:55:25.867Z,10.77
2019-02-09T17:57:54.423Z,8.13
2019-02-09T18:00:28.088Z,9.37
2019-02-09T18:02:56.704Z,7.83
2019-02-09T18:05:25.361Z,10.57
2019-02-09T18:07:53.899Z,8.53
2019-02-09T18:10:22.650Z,10.57
2019-02-09T18:12:51.130Z,11.10
2019-02-09T18:15:20.645Z,10.13
2019-02-09T18:17:49.262Z,10.77
2019-02-09T18:20:18.568Z,10.77
2019-02-09T18:22:47.186Z,13.17
2019-02-09T18:25:18.573Z,9.53
2019-02-09T18:27:47.185Z,9.70
2019-02-09T18:30:18.694Z,11.03
2019-02-09T18:32:47.374Z,12.53
2019-02-09T18:35:16.098Z,10.57
2019-02-09T18:37:44.718Z,8.87
2019-02-09T18:40:27.131Z,10.30
2019-02-09T18:42:55.846Z,14.80
2019-02-09T18:45:32.009Z,8.43
2019-02-09T18:48:00.673Z,15.77
2019-02-09T18:50:31.365Z,12.73
2019-02-09T18:53:01.156Z,13.43
2019-02-09T18:55:30.975Z,14.27
2019-02-09T18:57:59.666Z,12.90
2019-02-09T19:00:34.157Z,15.23
2019-02-09T19:03:02.787Z,15.33
2019-02-09T19:05:31.385Z,12.67
2019-02-09T19:08:00.012Z,11.83
2019-02-09T19:10:29.026Z,8.43
2019-02-09T19:12:57.762Z,15.40
2019-02-09T19:15:28.150Z,11.30
2019-02-09T19:17:58.160Z,12.57
2019-02-09T19:20:37.516Z,15.57
2019-02-09T19:23:06.301Z,19.07
2019-02-09T19:25:35.901Z,10.00
2019-02-09T19:28:06.300Z,17.47
2019-02-09T19:30:35.037Z,16.03
2019-02-09T19:33:04.083Z,14.97
2019-02-09T19:35:32.792Z,14.63
2019-02-09T19:38:01.407Z,15.27
2019-02-09T19:40:30.065Z,12.73
2019-02-09T19:42:59.889Z,13.47
2019-02-09T19:45:31.362Z,14.93
2019-02-09T19:48:00.047Z,18.73
2019-02-09T19:50:28.714Z,13.33
2019-02-09T19:52:57.328Z,12.10
2019-02-09T19:55:30.581Z,10.40
2019-02-09T19:57:59.131Z,9.97
2019-02-09T20:00:30.121Z,13.67
2019-02-09T20:02:58.798Z,12.63
2019-02-09T20:05:27.365Z,13.83
2019-02-09T20:07:56.121Z,16.33
2019-02-09T20:10:33.185Z,13.77
2019-02-09T20:13:02.026Z,10.90
2019-02-09T20:15:30.660Z,11.57
2019-02-09T20:17:59.202Z,11.10
2019-02-09T20:20:29.798Z,11.47
2019-02-09T20:22:58.417Z,9.37
2019-02-09T20:25:28.130Z,13.10
2019-02-09T20:27:56.747Z,11.87
2019-02-09T20:30:30.183Z,11.73
2019-02-09T20:32:58.878Z,15.17
2019-02-09T20:35:28.070Z,21.63
2019-02-09T20:37:57.451Z,11.93
2019-02-09T20:40:32.017Z,14.23
2019-02-09T20:43:02.822Z,12.97
2019-02-09T20:45:31.114Z,10.97
2019-02-09T20:47:59.687Z,13.27
2019-02-09T20:50:28.382Z,13.30
2019-02-09T20:52:56.950Z,9.23
2019-02-09T20:55:25.494Z,15.27
2019-02-09T20:57:54.242Z,12.30
2019-02-09T21:00:30.077Z,12.87
2019-02-09T21:02:58.798Z,11.87
2019-02-09T21:05:35.618Z,10.73
2019-02-09T21:07:57.990Z,16.60
2019-02-09T21:10:28.466Z,9.50
2019-02-09T21:12:57.385Z,10.03
2019-02-09T21:15:28.169Z,11.50
2019-02-09T21:17:56.811Z,11.53
2019-02-09T21:20:25.497Z,7.80
2019-02-09T21:22:54.204Z,10.57
2019-02-09T21:25:31.177Z,12.40
2019-02-09T21:27:59.821Z,11.47
2019-02-09T21:30:30.271Z,15.23
2019-02-09T21:32:59.021Z,12.80
2019-02-09T21:35:27.909Z,10.17
2019-02-09T21:37:56.511Z,15.00
2019-02-09T21:40:31.708Z,9.13
2019-02-09T21:43:00.431Z,11.37
2019-02-09T21:45:29.328Z,14.20
2019-02-09T21:47:57.966Z,10.13
2019-02-09T21:50:32.135Z,14.57
2019-02-09T21:53:00.948Z,8.90
2019-02-09T21:55:30.169Z,10.17
2019-02-09T21:57:58.945Z,14.30
2019-02-09T22:00:38.667Z,11.50
2019-02-09T22:03:08.736Z,10.37
2019-02-09T22:05:37.369Z,9.93
2019-02-09T22:08:08.467Z,12.37
2019-02-09T22:10:37.159Z,11.40
2019-02-09T22:13:06.414Z,9.37
2019-02-09T22:15:38.721Z,13.47
2019-02-09T22:18:05.702Z,11.10
2019-02-09T22:20:34.402Z,12.30
2019-02-09T22:23:03.032Z,11.37
2019-02-09T22:25:31.514Z,8.33
2019-02-09T22:28:00.138Z,7.57
2019-02-09T22:30:30.613Z,11.13
2019-02-09T22:32:59.801Z,10.57
2019-02-09T22:35:28.755Z,7.60
2019-02-09T22:37:57.718Z,8.97
2019-02-09T22:40:28.690Z,11.23
2019-02-09T22:42:57.476Z,8.37
2019-02-09T22:45:26.594Z,11.87
2019-02-09T22:47:56.111Z,15.17
2019-02-09T22:50:27.298Z,11.07
2019-02-09T22:52:56.214Z,9.83
2019-02-09T22:55:24.948Z,8.77
2019-02-09T22:57:53.496Z,10.70
2019-02-09T23:00:47.561Z,9.77
2019-02-09T23:03:16.889Z,16.90
2019-02-09T23:06:14.060Z,12.57
2019-02-09T23:08:57.149Z,8.77
2019-02-09T23:11:25.782Z,13.90
2019-02-09T23:13:54.451Z,11.43
2019-02-09T23:16:23.084Z,8.93
2019-02-09T23:18:51.654Z,9.33
2019-02-09T23:21:20.218Z,8.83
2019-02-09T23:23:48.769Z,11.33
2019-02-09T23:26:17.333Z,10.87
2019-02-09T23:28:45.952Z,9.10
2019-02-09T23:31:14.521Z,8.83
2019-02-09T23:33:43.105Z,9.83
2019-02-09T23:36:16.471Z,10.40
2019-02-09T23:38:41.885Z,12.97
2019-02-09T23:41:10.470Z,6.07
2019-02-09T23:43:39.025Z,13.77
2019-02-09T23:46:07.602Z,22.63
2019-02-09T23:48:36.162Z,11.43
2019-02-09T23:51:04.798Z,14.33
2019-02-09T23:53:33.347Z,10.63
2019-02-09T23:56:01.919Z,7.30
2019-02-09T23:58:30.470Z,10.87
